createdAt,value
2023-05-15T00:00:37.854Z,16.73
2023-05-15T00:03:04.721Z,16.67
2023-05-15T00:05:31.777Z,16.59
2023-05-15T00:07:58.543Z,16.66
2023-05-15T00:10:25.353Z,16.79
2023-05-15T00:12:52.130Z,16.77
2023-05-15T00:15:18.819Z,16.78
2023-05-15T00:17:45.560Z,16.66
2023-05-15T00:20:12.887Z,16.69
2023-05-15T00:22:39.704Z,16.55
2023-05-15T00:25:07.016Z,16.49
2023-05-15T00:27:33.941Z,16.50
2023-05-15T00:30:05.811Z,16.35
2023-05-15T00:32:34.134Z,16.25
2023-05-15T00:35:00.917Z,16.32
2023-05-15T00:37:27.729Z,16.35
2023-05-15T00:39:54.440Z,16.20
2023-05-15T00:42:23.533Z,16.15
2023-05-15T00:44:51.918Z,16.22
2023-05-15T00:47:20.805Z,16.23
2023-05-15T00:49:49.368Z,16.22
2023-05-15T00:52:16.271Z,16.20
2023-05-15T00:54:43.178Z,16.08
2023-05-15T00:57:11.303Z,15.86
2023-05-15T00:59:40.111Z,15.81
2023-05-15T01:02:06.854Z,15.87
2023-05-15T01:04:33.587Z,15.81
2023-05-15T01:07:01.169Z,15.87
2023-05-15T01:09:30.779Z,15.84
2023-05-15T01:12:00.600Z,15.82
2023-05-15T01:14:27.437Z,15.93
2023-05-15T01:16:54.257Z,15.85
2023-05-15T01:19:21.123Z,15.77
2023-05-15T01:22:19.783Z,15.61
2023-05-15T01:25:09.434Z,15.74
2023-05-15T01:27:39.084Z,15.78
2023-05-15T01:30:31.558Z,15.79
2023-05-15T01:33:19.561Z,15.91
2023-05-15T01:36:14.848Z,15.67
2023-05-15T01:38:52.326Z,15.66
2023-05-15T01:41:51.114Z,15.69
2023-05-15T01:44:36.708Z,15.70
2023-05-15T01:47:17.904Z,15.63
2023-05-15T01:49:45.525Z,15.71
2023-05-15T01:52:39.905Z,15.67
2023-05-15T01:55:08.566Z,15.54
2023-05-15T01:57:36.310Z,15.56
2023-05-15T02:00:04.472Z,15.50
2023-05-15T02:02:42.351Z,15.35
2023-05-15T02:05:09.808Z,15.47
2023-05-15T02:07:37.351Z,15.55
2023-05-15T02:10:06.365Z,15.56
2023-05-15T02:12:34.556Z,15.42
2023-05-15T02:15:03.784Z,15.49
2023-05-15T02:17:32.813Z,15.55
2023-05-15T02:19:59.852Z,15.46
2023-05-15T02:22:26.651Z,15.55
2023-05-15T02:24:53.413Z,15.49
2023-05-15T02:27:26.309Z,15.51
2023-05-15T02:30:30.978Z,15.55
2023-05-15T02:33:25.791Z,15.51
2023-05-15T02:36:13.984Z,15.47
2023-05-15T02:38:49.039Z,15.45
2023-05-15T02:41:16.834Z,15.44
2023-05-15T02:43:44.339Z,15.49
2023-05-15T02:46:12.869Z,15.43
2023-05-15T02:48:42.260Z,15.41
2023-05-15T02:51:09.255Z,15.35
2023-05-15T02:53:40.573Z,15.35
2023-05-15T02:56:07.480Z,15.34
2023-05-15T02:58:35.128Z,15.27
2023-05-15T03:01:01.920Z,15.20
2023-05-15T03:03:28.774Z,15.22
2023-05-15T03:05:55.603Z,15.13
2023-05-15T03:08:22.409Z,15.21
2023-05-15T03:10:49.163Z,15.28
2023-05-15T03:13:16.279Z,15.21
2023-05-15T03:15:45.314Z,15.24
2023-05-15T03:18:12.277Z,15.21
2023-05-15T03:20:39.059Z,15.20
2023-05-15T03:23:05.710Z,15.30
2023-05-15T03:25:32.458Z,15.13
2023-05-15T03:27:59.339Z,15.14
2023-05-15T03:30:26.319Z,15.16
2023-05-15T03:32:54.534Z,15.20
2023-05-15T03:35:21.235Z,15.00
2023-05-15T03:37:47.937Z,15.00
2023-05-15T03:40:14.835Z,14.94
2023-05-15T03:42:41.676Z,15.03
2023-05-15T03:45:08.863Z,14.85
2023-05-15T03:47:35.618Z,14.70
2023-05-15T03:50:02.547Z,14.77
2023-05-15T03:52:33.711Z,14.85
2023-05-15T03:55:01.368Z,14.82
2023-05-15T03:57:28.954Z,14.91
2023-05-15T03:59:55.766Z,14.97
2023-05-15T04:02:22.592Z,15.04
2023-05-15T04:04:49.335Z,15.08
2023-05-15T04:07:16.084Z,15.04
2023-05-15T04:09:42.820Z,15.15
2023-05-15T04:12:09.512Z,15.13
2023-05-15T04:14:36.340Z,15.10
2023-05-15T04:17:03.220Z,15.08
2023-05-15T04:19:29.865Z,15.07
2023-05-15T04:21:56.654Z,14.90
2023-05-15T04:24:23.375Z,14.88
2023-05-15T04:26:50.167Z,14.92
2023-05-15T04:29:16.866Z,14.95
2023-05-15T04:31:43.738Z,14.99
2023-05-15T04:34:10.628Z,15.03
2023-05-15T04:36:37.373Z,14.99
2023-05-15T04:39:04.112Z,15.01
2023-05-15T04:41:33.180Z,15.00
2023-05-15T04:44:00.072Z,14.91
2023-05-15T04:46:26.804Z,14.93
2023-05-15T04:48:53.542Z,14.94
2023-05-15T04:51:20.655Z,14.95
2023-05-15T04:53:47.432Z,14.89
2023-05-15T04:56:15.494Z,14.94
2023-05-15T04:58:42.447Z,15.05
2023-05-15T05:01:09.173Z,15.16
2023-05-15T05:03:35.937Z,15.16
2023-05-15T05:06:02.632Z,15.26
2023-05-15T05:08:29.377Z,15.36
2023-05-15T05:11:00.111Z,15.41
2023-05-15T05:13:27.796Z,15.54
2023-05-15T05:15:54.461Z,15.49
2023-05-15T05:18:21.190Z,15.48
2023-05-15T05:20:47.925Z,15.57
2023-05-15T05:23:18.247Z,15.42
2023-05-15T05:25:45.033Z,15.45
2023-05-15T05:28:11.739Z,15.62
2023-05-15T05:30:38.520Z,15.70
2023-05-15T05:33:06.288Z,15.91
2023-05-15T05:35:32.950Z,16.00
2023-05-15T05:38:00.996Z,15.85
2023-05-15T05:40:27.726Z,15.99
2023-05-15T05:42:54.838Z,16.10
2023-05-15T05:45:21.511Z,16.01
2023-05-15T05:47:49.202Z,16.06
2023-05-15T05:50:15.923Z,16.26
2023-05-15T05:52:42.561Z,16.03
2023-05-15T05:55:10.088Z,16.21
2023-05-15T05:57:36.826Z,16.38
2023-05-15T06:00:08.744Z,16.65
2023-05-15T06:02:38.057Z,16.44
2023-05-15T06:05:06.352Z,16.69
2023-05-15T06:07:34.228Z,16.70
2023-05-15T06:10:01.226Z,16.86
2023-05-15T06:12:28.766Z,16.96
2023-05-15T06:14:55.444Z,17.00
2023-05-15T06:17:22.746Z,17.21
2023-05-15T06:19:49.433Z,17.45
2023-05-15T06:22:16.103Z,17.71
2023-05-15T06:24:42.783Z,17.52
2023-05-15T06:27:09.412Z,17.73
2023-05-15T06:29:36.116Z,17.87
2023-05-15T06:32:02.783Z,17.75
2023-05-15T06:34:29.465Z,18.10
2023-05-15T06:36:56.081Z,18.36
2023-05-15T06:39:22.721Z,18.23
2023-05-15T06:41:49.442Z,18.25
2023-05-15T06:44:18.779Z,18.50
2023-05-15T06:46:45.473Z,18.45
2023-05-15T06:49:12.184Z,18.49
2023-05-15T06:51:38.865Z,18.41
2023-05-15T06:54:05.607Z,18.20
2023-05-15T06:56:32.357Z,18.05
2023-05-15T06:58:59.052Z,18.37
2023-05-15T07:01:25.861Z,18.23
2023-05-15T07:03:52.643Z,18.25
2023-05-15T07:06:19.342Z,18.08
2023-05-15T07:08:45.953Z,17.96
2023-05-15T07:11:12.656Z,18.09
2023-05-15T07:13:39.473Z,18.04
2023-05-15T07:16:06.416Z,17.99
2023-05-15T07:18:33.210Z,18.11
2023-05-15T07:21:00.126Z,18.27
2023-05-15T07:23:26.874Z,18.15
2023-05-15T07:25:54.673Z,18.04
2023-05-15T07:28:21.593Z,18.09
2023-05-15T07:30:48.400Z,17.84
2023-05-15T07:33:15.309Z,17.95
2023-05-15T07:35:42.158Z,17.84
2023-05-15T07:38:08.849Z,17.80
2023-05-15T07:40:35.627Z,17.83
2023-05-15T07:43:02.336Z,17.91
2023-05-15T07:45:29.249Z,17.84
2023-05-15T07:47:56.108Z,17.88
2023-05-15T07:50:22.827Z,17.86
2023-05-15T07:52:49.499Z,18.04
2023-05-15T07:55:16.102Z,17.82
2023-05-15T07:57:42.854Z,18.04
2023-05-15T08:00:11.509Z,18.08
2023-05-15T08:02:42.428Z,18.22
2023-05-15T08:05:09.778Z,18.25
2023-05-15T08:07:36.525Z,18.51
2023-05-15T08:10:06.066Z,18.76
2023-05-15T08:12:33.706Z,19.18
2023-05-15T08:15:00.536Z,19.40
2023-05-15T08:17:27.615Z,19.68
2023-05-15T08:19:56.284Z,19.90
2023-05-15T08:22:23.243Z,20.01
2023-05-15T08:24:50.130Z,19.80
2023-05-15T08:27:16.777Z,19.59
2023-05-15T08:29:43.449Z,19.51
2023-05-15T08:32:10.543Z,19.49
2023-05-15T08:34:38.641Z,19.06
2023-05-15T08:37:06.421Z,19.16
2023-05-15T08:39:33.140Z,18.86
2023-05-15T08:42:15.227Z,19.19
2023-05-15T08:44:42.277Z,19.35
2023-05-15T08:47:09.497Z,19.36
2023-05-15T08:49:47.827Z,19.49
2023-05-15T08:52:15.180Z,19.49
2023-05-15T08:54:42.818Z,19.54
2023-05-15T08:57:10.751Z,19.53
2023-05-15T08:59:38.177Z,19.63
2023-05-15T09:02:05.227Z,19.87
2023-05-15T09:04:32.020Z,19.96
2023-05-15T09:07:03.675Z,20.02
2023-05-15T09:09:33.055Z,20.16
2023-05-15T09:12:01.398Z,20.15
2023-05-15T09:14:28.402Z,20.28
2023-05-15T09:16:55.379Z,20.32
2023-05-15T09:19:22.607Z,20.32
2023-05-15T09:21:49.793Z,20.24
2023-05-15T09:24:23.549Z,20.17
2023-05-15T09:27:11.188Z,20.25
2023-05-15T09:29:39.090Z,20.25
2023-05-15T09:32:13.148Z,20.34
2023-05-15T09:34:44.816Z,20.39
2023-05-15T09:37:28.991Z,20.40
2023-05-15T09:39:55.875Z,20.37
2023-05-15T09:42:24.477Z,20.42
2023-05-15T09:44:51.217Z,20.35
2023-05-15T09:47:19.490Z,20.42
2023-05-15T09:49:47.132Z,20.29
2023-05-15T09:52:16.267Z,20.45
2023-05-15T09:54:47.401Z,20.38
2023-05-15T09:57:15.950Z,20.30
2023-05-15T09:59:47.679Z,20.34
2023-05-15T10:02:23.463Z,20.40
2023-05-15T10:04:57.512Z,20.47
2023-05-15T10:07:36.110Z,20.61
2023-05-15T10:10:06.291Z,20.33
2023-05-15T10:12:36.500Z,20.27
2023-05-15T10:15:04.295Z,20.26
2023-05-15T10:17:36.432Z,20.10
2023-05-15T10:20:07.026Z,20.27
2023-05-15T10:22:42.059Z,20.56
2023-05-15T10:25:17.562Z,20.43
2023-05-15T10:27:47.225Z,20.26
2023-05-15T10:30:17.014Z,20.16
2023-05-15T10:32:45.714Z,20.31
2023-05-15T10:35:13.076Z,20.61
2023-05-15T10:37:40.111Z,20.97
2023-05-15T10:40:10.149Z,21.14
2023-05-15T10:42:38.452Z,21.11
2023-05-15T10:45:07.497Z,21.12
2023-05-15T10:47:35.360Z,21.07
2023-05-15T10:50:02.337Z,20.80
2023-05-15T10:52:31.137Z,20.62
2023-05-15T10:54:57.974Z,20.25
2023-05-15T10:57:24.773Z,20.25
2023-05-15T10:59:51.579Z,20.42
2023-05-15T11:02:30.469Z,20.40
2023-05-15T11:05:01.406Z,20.42
2023-05-15T11:07:32.053Z,20.63
2023-05-15T11:09:58.764Z,20.80
2023-05-15T11:12:25.721Z,21.02
2023-05-15T11:14:52.369Z,21.07
2023-05-15T11:17:19.160Z,21.08
2023-05-15T11:19:48.982Z,21.02
2023-05-15T11:22:17.224Z,21.17
2023-05-15T11:24:52.714Z,21.16
2023-05-15T11:27:22.366Z,21.07
2023-05-15T11:30:08.680Z,20.99
2023-05-15T11:32:51.580Z,20.94
2023-05-15T11:35:30.615Z,20.91
2023-05-15T11:38:10.422Z,20.91
2023-05-15T11:40:52.696Z,20.87
2023-05-15T11:43:29.937Z,20.97
2023-05-15T11:46:05.132Z,21.08
2023-05-15T11:48:39.002Z,21.20
2023-05-15T11:51:14.614Z,21.16
2023-05-15T11:53:42.884Z,21.08
2023-05-15T11:56:23.197Z,21.00
2023-05-15T11:59:01.073Z,21.05
2023-05-15T12:01:38.458Z,21.01
2023-05-15T12:04:12.882Z,21.04
2023-05-15T12:06:39.835Z,20.99
2023-05-15T12:09:07.518Z,21.03
2023-05-15T12:11:34.241Z,21.13
2023-05-15T12:14:01.086Z,21.11
2023-05-15T12:16:28.332Z,21.28
2023-05-15T12:18:58.477Z,21.50
2023-05-15T12:21:28.312Z,21.55
2023-05-15T12:24:07.823Z,21.61
2023-05-15T12:26:35.858Z,21.66
2023-05-15T12:29:03.847Z,21.41
2023-05-15T12:31:31.595Z,21.15
2023-05-15T12:33:58.513Z,21.09
2023-05-15T12:36:29.709Z,20.96
2023-05-15T12:38:58.028Z,20.79
2023-05-15T12:41:31.287Z,20.76
2023-05-15T12:43:58.510Z,20.83
2023-05-15T12:46:29.301Z,21.03
2023-05-15T12:48:58.821Z,21.08
2023-05-15T12:51:27.132Z,21.03
2023-05-15T12:53:54.502Z,20.62
2023-05-15T12:56:21.400Z,20.68
2023-05-15T12:58:48.206Z,20.85
2023-05-15T13:01:15.881Z,20.93
2023-05-15T13:03:44.270Z,21.00
2023-05-15T13:06:11.181Z,21.09
2023-05-15T13:08:41.699Z,21.25
2023-05-15T13:11:15.905Z,21.25
2023-05-15T13:13:44.237Z,21.30
2023-05-15T13:16:18.624Z,21.48
2023-05-15T13:18:45.515Z,21.52
2023-05-15T13:21:12.242Z,21.37
2023-05-15T13:23:38.956Z,21.26
2023-05-15T13:26:05.764Z,21.25
2023-05-15T13:28:34.087Z,21.12
2023-05-15T13:31:01.146Z,21.13
2023-05-15T13:33:28.896Z,21.14
2023-05-15T13:38:41.532Z,21.15
2023-05-15T13:41:09.165Z,21.14
2023-05-15T13:43:35.882Z,21.12
2023-05-15T13:46:02.802Z,21.16
2023-05-15T13:48:29.549Z,21.43
2023-05-15T13:50:56.226Z,21.57
2023-05-15T13:53:22.941Z,21.71
2023-05-15T13:55:49.731Z,21.83
2023-05-15T13:58:16.571Z,22.10
2023-05-15T14:00:44.405Z,22.30
2023-05-15T14:03:13.420Z,22.62
2023-05-15T14:05:41.674Z,22.78
2023-05-15T14:08:08.387Z,22.97
2023-05-15T14:10:37.705Z,22.89
2023-05-15T14:13:04.725Z,22.68
2023-05-15T14:15:31.569Z,22.76
2023-05-15T14:17:58.345Z,22.66
2023-05-15T14:20:25.212Z,22.40
2023-05-15T14:22:52.122Z,22.48
2023-05-15T14:25:19.082Z,22.79
2023-05-15T14:27:47.463Z,22.98
2023-05-15T14:30:14.417Z,23.16
2023-05-15T14:32:41.457Z,23.09
2023-05-15T14:35:08.316Z,23.45
2023-05-15T14:37:36.596Z,23.71
2023-05-15T14:40:04.802Z,23.84
2023-05-15T14:42:31.795Z,23.58
2023-05-15T14:44:58.488Z,23.49
2023-05-15T14:47:27.794Z,23.84
2023-05-15T14:49:54.617Z,25.03
2023-05-15T14:52:21.412Z,25.21
2023-05-15T14:54:56.891Z,25.65
2023-05-15T14:57:34.543Z,27.00
2023-05-15T15:00:01.231Z,27.34
2023-05-15T15:02:28.199Z,27.12
2023-05-15T15:04:54.907Z,25.98
2023-05-15T15:07:21.615Z,25.12
2023-05-15T15:09:48.274Z,24.52
2023-05-15T15:12:15.450Z,24.18
2023-05-15T15:14:42.119Z,23.87
2023-05-15T15:17:08.858Z,23.78
2023-05-15T15:19:35.757Z,23.37
2023-05-15T15:22:02.458Z,23.05
2023-05-15T15:24:29.306Z,22.59
2023-05-15T15:26:56.034Z,22.22
2023-05-15T15:29:22.719Z,22.03
2023-05-15T15:31:49.421Z,21.94
2023-05-15T15:34:16.389Z,21.80
2023-05-15T15:36:43.638Z,21.80
2023-05-15T15:39:12.823Z,21.86
2023-05-15T15:41:39.611Z,21.87
2023-05-15T15:44:06.277Z,21.94
2023-05-15T15:46:33.190Z,21.82
2023-05-15T15:49:00.250Z,21.77
2023-05-15T15:51:27.028Z,21.73
2023-05-15T15:53:53.684Z,21.76
2023-05-15T15:56:21.222Z,21.82
2023-05-15T15:58:47.993Z,21.90
2023-05-15T16:01:14.755Z,21.85
2023-05-15T16:03:41.483Z,21.89
2023-05-15T16:06:08.221Z,21.87
2023-05-15T16:08:34.923Z,21.84
2023-05-15T16:11:02.085Z,21.61
2023-05-15T16:13:28.991Z,21.53
2023-05-15T16:15:55.732Z,21.40
2023-05-15T16:18:22.491Z,21.36
2023-05-15T16:20:49.495Z,21.26
2023-05-15T16:23:16.477Z,21.11
2023-05-15T16:25:44.728Z,21.10
2023-05-15T16:28:11.924Z,21.07
2023-05-15T16:30:48.202Z,21.12
2023-05-15T16:33:17.518Z,21.05
2023-05-15T16:35:45.537Z,21.16
2023-05-15T16:38:12.369Z,21.26
2023-05-15T16:40:39.180Z,21.30
2023-05-15T16:43:06.079Z,21.22
2023-05-15T16:45:33.034Z,21.20
2023-05-15T16:47:59.912Z,21.11
2023-05-15T16:50:27.061Z,20.98
2023-05-15T16:52:53.936Z,20.90
2023-05-15T16:55:20.635Z,20.81
2023-05-15T16:57:47.461Z,20.79
2023-05-15T17:00:15.395Z,20.77
2023-05-15T17:02:42.747Z,20.72
2023-05-15T17:05:11.093Z,20.65
2023-05-15T17:07:38.565Z,20.60
2023-05-15T17:10:06.851Z,20.46
2023-05-15T17:12:34.242Z,20.60
2023-05-15T17:15:00.982Z,20.58
2023-05-15T17:17:34.573Z,20.59
2023-05-15T17:20:02.808Z,20.67
2023-05-15T17:22:31.813Z,20.55
2023-05-15T17:24:58.854Z,20.61
2023-05-15T17:27:25.734Z,20.60
2023-05-15T17:29:52.395Z,20.51
2023-05-15T17:32:19.601Z,20.58
2023-05-15T17:34:46.644Z,20.67
2023-05-15T17:37:13.713Z,20.77
2023-05-15T17:39:40.536Z,20.69
2023-05-15T17:42:07.382Z,20.60
2023-05-15T17:44:34.185Z,20.53
2023-05-15T17:47:01.245Z,20.49
2023-05-15T17:49:28.127Z,20.45
2023-05-15T17:51:54.777Z,20.32
2023-05-15T17:54:21.790Z,20.22
2023-05-15T17:56:48.556Z,20.21
2023-05-15T17:59:15.587Z,20.17
2023-05-15T18:01:42.452Z,20.12
2023-05-15T18:04:09.464Z,19.95
2023-05-15T18:06:36.265Z,19.91
2023-05-15T18:09:03.252Z,20.13
2023-05-15T18:11:29.984Z,19.83
2023-05-15T18:13:56.739Z,19.83
2023-05-15T18:16:23.587Z,19.76
2023-05-15T18:18:51.961Z,19.76
2023-05-15T18:21:18.848Z,19.91
2023-05-15T18:23:45.524Z,19.71
2023-05-15T18:26:12.141Z,19.75
2023-05-15T18:28:38.972Z,19.83
2023-05-15T18:31:05.982Z,19.79
2023-05-15T18:33:33.664Z,19.71
2023-05-15T18:36:00.491Z,19.69
2023-05-15T18:38:27.293Z,19.70
2023-05-15T18:40:54.032Z,19.63
2023-05-15T18:43:20.716Z,19.62
2023-05-15T18:45:48.336Z,19.59
2023-05-15T18:48:15.479Z,19.46
2023-05-15T18:50:42.545Z,19.45
2023-05-15T18:53:09.236Z,19.39
2023-05-15T18:55:36.016Z,19.52
2023-05-15T18:58:02.789Z,19.44
2023-05-15T19:00:38.127Z,19.52
2023-05-15T19:03:06.751Z,19.36
2023-05-15T19:05:33.946Z,19.41
2023-05-15T19:08:01.134Z,19.41
2023-05-15T19:10:29.398Z,19.46
2023-05-15T19:12:57.313Z,19.38
2023-05-15T19:15:25.176Z,19.36
2023-05-15T19:17:52.170Z,19.38
2023-05-15T19:20:19.237Z,19.42
2023-05-15T19:22:46.105Z,19.30
2023-05-15T19:25:13.206Z,19.18
2023-05-15T19:27:40.253Z,19.13
2023-05-15T19:30:07.895Z,19.16
2023-05-15T19:32:34.729Z,19.14
2023-05-15T19:35:01.742Z,18.91
2023-05-15T19:37:28.968Z,18.91
2023-05-15T19:39:56.606Z,18.86
2023-05-15T19:42:23.300Z,18.44
2023-05-15T19:44:49.996Z,18.51
2023-05-15T19:47:16.759Z,18.56
2023-05-15T19:49:43.426Z,18.73
2023-05-15T19:52:10.325Z,18.57
2023-05-15T19:54:37.330Z,18.40
2023-05-15T19:57:04.159Z,18.42
2023-05-15T19:59:30.879Z,18.33
2023-05-15T20:01:57.751Z,18.13
2023-05-15T20:04:24.455Z,18.24
2023-05-15T20:06:51.144Z,18.15
2023-05-15T20:09:17.814Z,17.95
2023-05-15T20:11:45.195Z,17.93
2023-05-15T20:14:11.890Z,17.84
2023-05-15T20:16:38.752Z,17.75
2023-05-15T20:19:05.908Z,17.60
2023-05-15T20:21:32.980Z,17.46
2023-05-15T20:24:00.024Z,17.52
2023-05-15T20:26:27.071Z,17.52
2023-05-15T20:28:53.853Z,17.45
2023-05-15T20:31:20.907Z,17.41
2023-05-15T20:33:47.658Z,17.50
2023-05-15T20:36:16.483Z,17.59
2023-05-15T20:38:44.921Z,17.62
2023-05-15T20:41:11.770Z,17.62
2023-05-15T20:43:38.988Z,17.55
2023-05-15T20:46:09.108Z,17.56
2023-05-15T20:48:36.400Z,17.62
2023-05-15T20:51:03.253Z,17.56
2023-05-15T20:53:30.164Z,17.63
2023-05-15T20:55:56.877Z,17.70
2023-05-15T20:58:23.704Z,17.57
2023-05-15T21:00:50.520Z,17.61
2023-05-15T21:03:17.443Z,17.55
2023-05-15T21:05:44.706Z,17.46
2023-05-15T21:08:11.711Z,17.71
2023-05-15T21:10:38.566Z,17.68
2023-05-15T21:13:05.493Z,17.40
2023-05-15T21:15:32.296Z,17.64
2023-05-15T21:17:59.111Z,17.63
2023-05-15T21:20:26.820Z,17.55
2023-05-15T21:22:53.942Z,17.54
2023-05-15T21:25:21.373Z,17.56
2023-05-15T21:27:48.975Z,17.64
2023-05-15T21:30:15.894Z,17.28
2023-05-15T21:32:42.785Z,17.37
2023-05-15T21:35:10.094Z,17.38
2023-05-15T21:37:37.103Z,17.57
2023-05-15T21:40:04.887Z,17.43
2023-05-15T21:42:32.241Z,17.41
2023-05-15T21:44:59.254Z,17.60
2023-05-15T21:47:26.025Z,17.51
2023-05-15T21:49:52.808Z,17.58
2023-05-15T21:52:19.541Z,17.43
2023-05-15T21:54:46.207Z,17.38
2023-05-15T21:57:13.102Z,17.17
2023-05-15T21:59:39.842Z,17.18
2023-05-15T22:02:07.390Z,17.12
2023-05-15T22:04:34.438Z,17.18
2023-05-15T22:07:01.164Z,17.35
2023-05-15T22:09:28.043Z,17.15
2023-05-15T22:11:54.856Z,16.96
2023-05-15T22:14:21.585Z,17.02
2023-05-15T22:16:48.372Z,17.00
2023-05-15T22:19:31.441Z,16.90
2023-05-15T22:22:00.305Z,16.86
2023-05-15T22:24:27.278Z,17.08
2023-05-15T22:26:54.135Z,16.86
2023-05-15T22:29:20.913Z,16.98
2023-05-15T22:31:47.751Z,17.12
2023-05-15T22:34:14.468Z,16.86
2023-05-15T22:36:41.340Z,16.88
2023-05-15T22:39:08.096Z,17.01
2023-05-15T22:41:34.762Z,16.92
2023-05-15T22:44:02.252Z,16.78
2023-05-15T22:46:29.192Z,16.76
2023-05-15T22:48:58.951Z,16.68
2023-05-15T22:51:26.926Z,16.62
2023-05-15T22:53:53.655Z,16.50
2023-05-15T22:56:20.326Z,16.75
2023-05-15T22:58:47.876Z,16.65
2023-05-15T23:01:14.625Z,16.49
2023-05-15T23:03:41.404Z,16.54
2023-05-15T23:06:08.188Z,16.45
2023-05-15T23:08:35.010Z,16.34
2023-05-15T23:11:02.309Z,16.37
2023-05-15T23:13:29.010Z,16.46
2023-05-15T23:15:55.758Z,16.37
2023-05-15T23:18:22.513Z,16.36
2023-05-15T23:20:49.418Z,16.28
2023-05-15T23:23:16.174Z,16.28
2023-05-15T23:25:43.163Z,16.19
2023-05-15T23:28:09.764Z,16.37
2023-05-15T23:30:36.696Z,16.12
2023-05-15T23:33:03.558Z,16.24
2023-05-15T23:35:30.454Z,16.32
2023-05-15T23:37:57.136Z,16.27
2023-05-15T23:40:26.559Z,15.98
2023-05-15T23:42:53.327Z,16.15
2023-05-15T23:45:20.148Z,16.07
2023-05-15T23:47:46.998Z,16.14
2023-05-15T23:50:13.891Z,15.86
2023-05-15T23:52:40.790Z,16.10
2023-05-15T23:55:07.999Z,15.94
2023-05-15T23:57:35.044Z,15.91
